createdAt,value
2023-07-27T00:01:01.300Z,99762.03
2023-07-27T00:03:29.019Z,99747.84
2023-07-27T00:06:00.605Z,99750.78
2023-07-27T00:08:28.504Z,99743.53
2023-07-27T00:10:57.924Z,99732.53
2023-07-27T00:13:25.543Z,99747.31
2023-07-27T00:15:53.072Z,99746.78
2023-07-27T00:18:23.630Z,99726.03
2023-07-27T00:20:50.903Z,99717.06
2023-07-27T00:23:18.160Z,99709.84
2023-07-27T00:25:45.392Z,99714.84
2023-07-27T00:28:15.541Z,99721.19
2023-07-27T00:30:42.795Z,99713.53
2023-07-27T00:33:12.044Z,99717.13
2023-07-27T00:35:44.665Z,99718.16
2023-07-27T00:38:11.876Z,99711.72
2023-07-27T00:40:40.212Z,99703.59
2023-07-27T00:43:08.831Z,99691.91
2023-07-27T00:45:36.227Z,99727.69
2023-07-27T00:48:05.825Z,99715.22
2023-07-27T00:50:39.693Z,99732.22
2023-07-27T00:53:14.315Z,99730.69
2023-07-27T00:55:48.873Z,99711.81
2023-07-27T00:58:16.437Z,99714.88
2023-07-27T01:00:44.258Z,99698.47
2023-07-27T01:03:14.263Z,99705.97
2023-07-27T01:05:44.026Z,99724.94
2023-07-27T01:08:14.547Z,99705.44
2023-07-27T01:10:55.499Z,99727.75
2023-07-27T01:13:48.246Z,99718.53
2023-07-27T01:16:23.498Z,99713.44
2023-07-27T01:19:03.289Z,99718.38
2023-07-27T01:21:38.420Z,99720.09
2023-07-27T01:24:24.621Z,99727.72
2023-07-27T01:27:21.099Z,99714.00
2023-07-27T01:30:04.053Z,99725.91
2023-07-27T01:32:37.195Z,99718.16
2023-07-27T01:35:10.951Z,99708.66
2023-07-27T01:37:41.460Z,99696.97
2023-07-27T01:40:12.245Z,99699.25
2023-07-27T01:42:40.790Z,99702.41
2023-07-27T01:45:12.371Z,99700.88
2023-07-27T01:47:43.214Z,99729.47
2023-07-27T01:50:13.171Z,99720.47
2023-07-27T01:52:41.690Z,99722.06
2023-07-27T01:55:09.912Z,99719.47
2023-07-27T01:57:37.936Z,99714.16
2023-07-27T02:00:07.184Z,99730.28
2023-07-27T02:02:43.462Z,99713.72
2023-07-27T02:05:12.529Z,99704.88
2023-07-27T02:07:40.742Z,99714.28
2023-07-27T02:10:11.808Z,99724.00
2023-07-27T02:12:46.109Z,99738.53
2023-07-27T02:15:19.099Z,99736.56
2023-07-27T02:17:51.172Z,99724.97
2023-07-27T02:20:21.194Z,99743.28
2023-07-27T02:22:49.233Z,99751.66
2023-07-27T02:25:16.659Z,99727.88
2023-07-27T02:27:46.434Z,99745.78
2023-07-27T02:30:15.027Z,99730.97
2023-07-27T02:32:42.520Z,99753.84
2023-07-27T02:35:10.694Z,99758.75
2023-07-27T02:37:38.410Z,99743.00
2023-07-27T02:40:06.701Z,99750.50
2023-07-27T02:42:34.699Z,99752.69
2023-07-27T02:45:01.950Z,99735.19
2023-07-27T02:47:34.842Z,99750.75
2023-07-27T02:50:02.115Z,99758.47
2023-07-27T02:52:33.258Z,99745.97
2023-07-27T02:55:04.609Z,99761.00
2023-07-27T02:57:34.135Z,99738.75
2023-07-27T03:00:01.961Z,99763.81
2023-07-27T03:02:31.857Z,99743.16
2023-07-27T03:05:04.917Z,99766.31
2023-07-27T03:07:32.195Z,99745.53
2023-07-27T03:09:59.858Z,99763.41
2023-07-27T03:12:27.074Z,99739.25
2023-07-27T03:14:54.463Z,99728.09
2023-07-27T03:17:24.177Z,99730.34
2023-07-27T03:19:51.488Z,99741.81
2023-07-27T03:22:18.895Z,99728.25
2023-07-27T03:24:46.986Z,99746.84
2023-07-27T03:27:14.327Z,99727.00
2023-07-27T03:29:42.221Z,99742.53
2023-07-27T03:32:11.322Z,99740.00
2023-07-27T03:34:39.116Z,99729.47
2023-07-27T03:37:07.099Z,99723.63
2023-07-27T03:39:34.389Z,99719.78
2023-07-27T03:42:01.789Z,99741.41
2023-07-27T03:44:30.165Z,99742.97
2023-07-27T03:46:57.444Z,99740.28
2023-07-27T03:49:24.706Z,99738.38
2023-07-27T03:51:52.306Z,99724.47
2023-07-27T03:54:20.764Z,99713.84
2023-07-27T03:56:48.023Z,99714.06
2023-07-27T03:59:15.242Z,99728.00
2023-07-27T04:01:43.038Z,99717.50
2023-07-27T04:04:10.375Z,99720.06
2023-07-27T04:06:38.811Z,99715.63
2023-07-27T04:09:06.172Z,99721.47
2023-07-27T04:11:34.758Z,99723.81
2023-07-27T04:14:03.785Z,99721.13
2023-07-27T04:16:33.356Z,99718.31
2023-07-27T04:19:00.856Z,99720.16
2023-07-27T04:21:28.566Z,99724.63
2023-07-27T04:23:55.945Z,99719.28
2023-07-27T04:26:23.346Z,99709.19
2023-07-27T04:28:50.788Z,99734.59
2023-07-27T04:31:18.274Z,99706.19
2023-07-27T04:33:45.651Z,99715.59
2023-07-27T04:36:12.925Z,99718.13
2023-07-27T04:38:40.077Z,99719.28
2023-07-27T04:41:08.450Z,99715.59
2023-07-27T04:43:35.834Z,99726.88
2023-07-27T04:46:04.707Z,99727.06
2023-07-27T04:48:32.752Z,99722.38
2023-07-27T04:51:01.557Z,99720.00
2023-07-27T04:53:28.704Z,99729.75
2023-07-27T04:55:56.023Z,99718.41
2023-07-27T04:58:23.997Z,99720.59
2023-07-27T05:00:55.625Z,99719.78
2023-07-27T05:03:23.059Z,99703.91
2023-07-27T05:05:54.713Z,99722.81
2023-07-27T05:08:23.326Z,99700.44
2023-07-27T05:10:50.765Z,99703.16
2023-07-27T05:13:19.421Z,99706.69
2023-07-27T05:15:47.746Z,99698.25
2023-07-27T05:18:16.001Z,99715.28
2023-07-27T05:20:45.007Z,99694.50
2023-07-27T05:23:12.379Z,99712.63
2023-07-27T05:25:39.541Z,99697.47
2023-07-27T05:28:06.745Z,99697.97
2023-07-27T05:30:34.314Z,99697.91
2023-07-27T05:33:02.357Z,99675.97
2023-07-27T05:35:31.202Z,99692.47
2023-07-27T05:37:58.373Z,99671.09
2023-07-27T05:40:25.565Z,99683.31
2023-07-27T05:42:52.791Z,99676.50
2023-07-27T05:45:20.151Z,99674.28
2023-07-27T05:47:47.402Z,99659.75
2023-07-27T05:50:15.133Z,99673.91
2023-07-27T05:52:42.554Z,99670.97
2023-07-27T05:55:10.311Z,99672.22
2023-07-27T05:57:37.739Z,99669.19
2023-07-27T06:00:07.245Z,99666.94
2023-07-27T06:02:35.747Z,99673.41
2023-07-27T06:05:03.638Z,99689.50
2023-07-27T06:07:31.087Z,99687.75
2023-07-27T06:09:58.228Z,99670.28
2023-07-27T06:12:25.806Z,99671.00
2023-07-27T06:14:53.196Z,99666.50
2023-07-27T06:17:20.677Z,99683.34
2023-07-27T06:19:48.193Z,99662.59
2023-07-27T06:22:15.413Z,99684.81
2023-07-27T06:24:42.741Z,99672.38
2023-07-27T06:27:10.190Z,99667.28
2023-07-27T06:29:37.699Z,99654.06
2023-07-27T06:32:05.563Z,99657.66
2023-07-27T06:34:32.864Z,99669.13
2023-07-27T06:37:00.089Z,99656.53
2023-07-27T06:39:27.349Z,99674.00
2023-07-27T06:41:55.429Z,99654.72
2023-07-27T06:44:30.040Z,99654.22
2023-07-27T06:46:57.405Z,99662.25
2023-07-27T06:49:25.442Z,99651.66
2023-07-27T06:51:52.553Z,99654.88
2023-07-27T06:54:20.052Z,99650.97
2023-07-27T06:56:47.810Z,99674.47
2023-07-27T06:59:15.056Z,99656.16
2023-07-27T07:01:44.396Z,99656.16
2023-07-27T07:04:11.743Z,99643.28
2023-07-27T07:06:38.993Z,99645.41
2023-07-27T07:09:06.738Z,99633.91
2023-07-27T07:11:34.248Z,99628.25
2023-07-27T07:14:02.302Z,99642.19
2023-07-27T07:16:29.787Z,99631.16
2023-07-27T07:18:57.611Z,99647.75
2023-07-27T07:21:24.928Z,99622.59
2023-07-27T07:23:52.112Z,99645.94
2023-07-27T07:26:19.555Z,99640.38
2023-07-27T07:28:46.960Z,99633.00
2023-07-27T07:31:14.912Z,99630.25
2023-07-27T07:33:42.336Z,99632.81
2023-07-27T07:36:09.443Z,99626.34
2023-07-27T07:38:37.305Z,99644.00
2023-07-27T07:41:05.995Z,99631.00
2023-07-27T07:43:36.045Z,99641.25
2023-07-27T07:46:03.329Z,99640.69
2023-07-27T07:48:30.690Z,99633.44
2023-07-27T07:50:58.139Z,99634.81
2023-07-27T07:53:34.883Z,99619.63
2023-07-27T07:56:04.013Z,99609.72
2023-07-27T07:58:31.759Z,99627.31
2023-07-27T08:00:59.101Z,99617.28
2023-07-27T08:03:26.554Z,99590.09
2023-07-27T08:05:53.895Z,99624.31
2023-07-27T08:08:21.056Z,99615.69
2023-07-27T08:10:48.889Z,99607.38
2023-07-27T08:13:16.102Z,99592.63
2023-07-27T08:15:56.206Z,99608.94
2023-07-27T08:18:24.058Z,99595.34
2023-07-27T08:21:04.645Z,99594.41
2023-07-27T08:23:33.147Z,99590.44
2023-07-27T08:26:08.990Z,99601.84
2023-07-27T08:28:36.544Z,99589.84
2023-07-27T08:31:07.078Z,99589.22
2023-07-27T08:33:34.439Z,99585.75
2023-07-27T08:36:02.801Z,99589.31
2023-07-27T08:38:30.532Z,99586.97
2023-07-27T08:40:59.287Z,99586.81
2023-07-27T08:43:27.328Z,99577.97
2023-07-27T08:45:56.020Z,99582.72
2023-07-27T08:48:25.550Z,99561.06
2023-07-27T08:50:54.821Z,99565.16
2023-07-27T08:53:22.206Z,99580.00
2023-07-27T08:55:49.438Z,99561.53
2023-07-27T08:58:17.148Z,99577.63
2023-07-27T09:00:44.958Z,99561.38
2023-07-27T09:03:13.023Z,99566.41
2023-07-27T09:05:43.344Z,99586.88
2023-07-27T09:08:13.503Z,99586.41
2023-07-27T09:10:44.436Z,99577.13
2023-07-27T09:13:11.875Z,99568.94
2023-07-27T09:15:44.216Z,99565.72
2023-07-27T09:18:14.650Z,99576.00
2023-07-27T09:20:42.601Z,99555.44
2023-07-27T09:23:10.158Z,99573.81
2023-07-27T09:25:41.555Z,99561.94
2023-07-27T09:28:09.333Z,99561.03
2023-07-27T09:30:45.078Z,99570.69
2023-07-27T09:33:12.326Z,99549.66
2023-07-27T09:35:40.038Z,99564.97
2023-07-27T09:38:07.584Z,99551.78
2023-07-27T09:40:35.330Z,99548.75
2023-07-27T09:43:10.491Z,99560.16
2023-07-27T09:45:39.777Z,99553.41
2023-07-27T09:48:08.969Z,99547.53
2023-07-27T09:50:37.588Z,99537.72
2023-07-27T09:53:06.780Z,99528.56
2023-07-27T09:55:34.591Z,99536.28
2023-07-27T09:58:02.211Z,99517.47
2023-07-27T10:00:31.383Z,99534.50
2023-07-27T10:03:09.160Z,99525.84
2023-07-27T10:05:42.281Z,99533.25
2023-07-27T10:08:10.676Z,99519.75
2023-07-27T10:10:43.684Z,99527.28
2023-07-27T10:13:36.560Z,99527.13
2023-07-27T10:16:04.272Z,99524.69
2023-07-27T10:18:33.366Z,99521.97
2023-07-27T10:21:35.414Z,99526.16
2023-07-27T10:24:05.192Z,99515.19
2023-07-27T10:26:54.051Z,99520.50
2023-07-27T10:29:25.895Z,99506.34
2023-07-27T10:32:15.580Z,99511.66
2023-07-27T10:34:42.989Z,99503.72
2023-07-27T10:37:12.242Z,99511.13
2023-07-27T10:39:49.224Z,99506.94
2023-07-27T10:42:24.025Z,99496.97
2023-07-27T10:45:00.569Z,99508.97
2023-07-27T10:47:33.447Z,99488.06
2023-07-27T10:50:01.867Z,99482.72
2023-07-27T10:52:41.096Z,99473.38
2023-07-27T10:55:08.698Z,99479.97
2023-07-27T10:57:37.063Z,99470.66
2023-07-27T11:00:05.761Z,99481.91
2023-07-27T11:02:34.819Z,99471.94
2023-07-27T11:05:07.533Z,99456.53
2023-07-27T11:07:44.307Z,99451.03
2023-07-27T11:10:14.132Z,99459.38
2023-07-27T11:12:53.976Z,99453.66
2023-07-27T11:15:25.124Z,99440.47
2023-07-27T11:17:55.317Z,99444.59
2023-07-27T11:20:27.908Z,99443.66
2023-07-27T11:22:58.783Z,99438.00
2023-07-27T11:25:26.980Z,99428.38
2023-07-27T11:27:55.193Z,99430.91
2023-07-27T11:30:23.704Z,99412.59
2023-07-27T11:33:04.690Z,99416.94
2023-07-27T11:35:32.684Z,99422.72
2023-07-27T11:38:01.130Z,99417.63
2023-07-27T11:40:28.403Z,99417.91
2023-07-27T11:42:57.435Z,99423.41
2023-07-27T11:45:26.007Z,99414.09
2023-07-27T11:47:54.431Z,99400.41
2023-07-27T11:50:22.567Z,99394.66
2023-07-27T11:52:52.402Z,99409.28
2023-07-27T11:55:19.806Z,99397.97
2023-07-27T11:57:53.251Z,99413.28
2023-07-27T12:00:20.870Z,99395.38
2023-07-27T12:02:50.054Z,99392.69
2023-07-27T12:05:20.907Z,99396.97
2023-07-27T12:10:30.570Z,99401.19
2023-07-27T12:15:35.494Z,99391.06
2023-07-27T12:18:04.794Z,99362.44
2023-07-27T12:30:35.261Z,99357.75
2023-07-27T12:33:02.688Z,99376.38
2023-07-27T12:35:30.383Z,99364.16
2023-07-27T12:38:47.519Z,99347.13
2023-07-27T12:43:18.289Z,99349.03
2023-07-27T12:45:45.881Z,99366.06
2023-07-27T12:48:13.475Z,99341.94
2023-07-27T12:50:42.537Z,99361.94
2023-07-27T12:53:09.724Z,99357.94
2023-07-27T12:55:37.987Z,99355.03
2023-07-27T12:58:05.227Z,99355.31
2023-07-27T13:00:32.573Z,99359.03
2023-07-27T13:03:00.194Z,99349.81
2023-07-27T13:05:27.611Z,99350.03
2023-07-27T13:07:54.807Z,99348.94
2023-07-27T13:10:22.166Z,99362.03
2023-07-27T13:12:49.481Z,99351.13
2023-07-27T13:15:18.443Z,99352.53
2023-07-27T13:17:47.587Z,99339.50
2023-07-27T13:20:15.208Z,99348.03
2023-07-27T13:22:43.377Z,99359.44
2023-07-27T13:25:10.748Z,99350.91
2023-07-27T13:27:38.070Z,99356.03
2023-07-27T13:30:06.254Z,99344.13
2023-07-27T13:32:34.056Z,99346.53
2023-07-27T13:35:02.171Z,99357.72
2023-07-27T13:37:31.610Z,99340.13
2023-07-27T13:39:58.815Z,99340.91
2023-07-27T13:42:26.883Z,99352.31
2023-07-27T13:44:54.365Z,99344.72
2023-07-27T13:47:21.722Z,99337.91
2023-07-27T13:49:49.149Z,99337.84
2023-07-27T13:52:18.557Z,99342.34
2023-07-27T13:54:45.797Z,99343.44
2023-07-27T13:57:13.054Z,99338.63
2023-07-27T13:59:40.364Z,99336.03
2023-07-27T14:02:07.794Z,99325.81
2023-07-27T14:04:35.028Z,99322.25
2023-07-27T14:07:03.171Z,99340.84
2023-07-27T14:09:30.893Z,99318.25
2023-07-27T14:11:58.495Z,99336.63
2023-07-27T14:14:25.972Z,99328.72
2023-07-27T14:16:53.186Z,99326.84
2023-07-27T14:19:20.470Z,99328.34
2023-07-27T14:21:47.747Z,99307.84
2023-07-27T14:24:14.882Z,99316.88
2023-07-27T14:26:42.130Z,99316.28
2023-07-27T14:29:09.730Z,99318.16
2023-07-27T14:31:37.162Z,99324.28
2023-07-27T14:34:04.928Z,99308.88
2023-07-27T14:36:32.452Z,99306.66
2023-07-27T14:41:29.947Z,99301.47
2023-07-27T14:43:57.178Z,99304.88
2023-07-27T14:46:24.492Z,99288.06
2023-07-27T14:48:51.616Z,99290.84
2023-07-27T14:51:19.081Z,99286.84
2023-07-27T14:53:47.436Z,99292.16
2023-07-27T14:56:17.981Z,99286.84
2023-07-27T14:58:47.810Z,99283.22
2023-07-27T15:01:15.524Z,99290.13
2023-07-27T15:03:52.001Z,99273.06
2023-07-27T15:06:20.820Z,99275.81
2023-07-27T15:08:48.230Z,99274.44
2023-07-27T15:13:45.991Z,99276.84
2023-07-27T15:16:13.316Z,99284.84
2023-07-27T15:18:41.170Z,99277.63
2023-07-27T15:21:08.306Z,99274.53
2023-07-27T15:23:35.602Z,99266.75
2023-07-27T15:26:05.095Z,99283.25
2023-07-27T15:28:34.979Z,99284.25
2023-07-27T15:31:06.834Z,99268.56
2023-07-27T15:33:35.525Z,99287.06
2023-07-27T15:36:02.796Z,99266.09
2023-07-27T15:38:30.005Z,99256.47
2023-07-27T15:40:57.332Z,99267.69
2023-07-27T15:43:24.859Z,99279.84
2023-07-27T15:45:52.302Z,99269.78
2023-07-27T15:48:22.279Z,99273.09
2023-07-27T15:50:49.531Z,99281.28
2023-07-27T15:53:17.192Z,99288.91
2023-07-27T15:55:44.444Z,99272.38
2023-07-27T15:58:12.623Z,99277.63
2023-07-27T16:00:40.704Z,99291.41
2023-07-27T16:03:08.406Z,99276.38
2023-07-27T16:05:41.744Z,99297.63
2023-07-27T16:08:09.073Z,99280.09
2023-07-27T16:10:36.251Z,99292.81
2023-07-27T16:13:03.888Z,99299.28
2023-07-27T16:15:31.329Z,99281.47
2023-07-27T16:17:58.757Z,99301.47
2023-07-27T16:20:26.107Z,99305.19
2023-07-27T16:22:53.916Z,99301.41
2023-07-27T16:25:24.857Z,99305.47
2023-07-27T16:27:55.232Z,99302.09
2023-07-27T16:30:22.916Z,99289.25
2023-07-27T16:32:50.798Z,99300.84
2023-07-27T16:35:18.203Z,99300.09
2023-07-27T16:37:46.491Z,99302.78
2023-07-27T16:40:14.400Z,99306.66
2023-07-27T16:42:41.665Z,99285.91
2023-07-27T16:45:09.607Z,99283.06
2023-07-27T16:47:36.833Z,99293.94
2023-07-27T16:50:04.143Z,99312.63
2023-07-27T16:52:31.290Z,99290.97
2023-07-27T16:54:58.572Z,99303.00
2023-07-27T16:57:26.149Z,99297.91
2023-07-27T16:59:53.451Z,99311.59
2023-07-27T17:02:21.013Z,99285.78
2023-07-27T17:04:53.277Z,99306.59
2023-07-27T17:07:20.929Z,99290.78
2023-07-27T17:09:50.915Z,99293.84
2023-07-27T17:12:18.685Z,99273.63
2023-07-27T17:14:46.766Z,99267.34
2023-07-27T17:17:14.001Z,99286.16
2023-07-27T17:19:41.422Z,99227.81
2023-07-27T17:22:08.867Z,99270.28
2023-07-27T17:24:36.147Z,99262.72
2023-07-27T17:27:03.650Z,99258.91
2023-07-27T17:29:31.281Z,99257.63
2023-07-27T17:31:59.351Z,99259.22
2023-07-27T17:34:29.772Z,99248.00
2023-07-27T17:36:59.167Z,99247.66
2023-07-27T17:39:26.587Z,99253.72
2023-07-27T17:41:54.503Z,99239.31
2023-07-27T17:44:21.801Z,99193.81
2023-07-27T17:46:48.940Z,99242.38
2023-07-27T17:49:16.130Z,99231.16
2023-07-27T17:51:43.378Z,99226.66
2023-07-27T17:54:11.417Z,99239.47
2023-07-27T17:56:38.604Z,99235.47
2023-07-27T17:59:05.998Z,99234.84
2023-07-27T18:01:34.186Z,99222.66
2023-07-27T18:04:02.146Z,99227.94
2023-07-27T18:06:29.587Z,99228.81
2023-07-27T18:08:56.898Z,99231.06
2023-07-27T18:11:24.047Z,99251.28
2023-07-27T18:13:51.279Z,99247.13
2023-07-27T18:16:18.676Z,99253.56
2023-07-27T18:18:45.987Z,99259.06
2023-07-27T18:21:16.861Z,99263.22
2023-07-27T18:23:45.703Z,99247.22
2023-07-27T18:26:20.806Z,99263.72
2023-07-27T18:28:50.767Z,99279.66
2023-07-27T18:31:21.561Z,99262.34
2023-07-27T18:33:52.359Z,99251.25
2023-07-27T18:36:25.035Z,99274.53
2023-07-27T18:38:52.258Z,99242.88
2023-07-27T18:41:21.081Z,99259.28
2023-07-27T18:43:49.106Z,99258.03
2023-07-27T18:46:23.690Z,99268.28
2023-07-27T18:48:51.348Z,99249.84
2023-07-27T18:51:20.416Z,99275.50
2023-07-27T18:53:47.761Z,99239.56
2023-07-27T18:56:15.089Z,99244.72
2023-07-27T18:58:43.246Z,99237.97
2023-07-27T19:01:10.540Z,99248.25
2023-07-27T19:03:38.849Z,99251.47
2023-07-27T19:06:07.621Z,99241.19
2023-07-27T19:08:34.839Z,99236.56
2023-07-27T19:11:05.717Z,99255.00
2023-07-27T19:13:33.497Z,99245.88
2023-07-27T19:16:02.515Z,99243.31
2023-07-27T19:18:29.839Z,99215.41
2023-07-27T19:20:57.965Z,99217.00
2023-07-27T19:23:25.323Z,99223.78
2023-07-27T19:25:53.673Z,99211.06
2023-07-27T19:28:22.895Z,99196.50
2023-07-27T19:30:50.574Z,99193.44
2023-07-27T19:33:18.415Z,99204.34
2023-07-27T19:35:52.928Z,99201.47
2023-07-27T19:38:22.951Z,99198.56
2023-07-27T19:40:50.618Z,99185.09
2023-07-27T19:43:20.058Z,99162.19
2023-07-27T19:45:51.854Z,99178.34
2023-07-27T19:48:20.349Z,99154.81
2023-07-27T19:50:52.508Z,99175.16
2023-07-27T19:53:20.922Z,99166.81
2023-07-27T19:56:00.520Z,99146.28
2023-07-27T19:58:31.523Z,99157.50
2023-07-27T20:01:01.073Z,99160.22
2023-07-27T20:03:31.000Z,99148.19
2023-07-27T20:06:01.784Z,99154.94
2023-07-27T20:08:45.741Z,99159.88
2023-07-27T20:11:16.591Z,99142.75
2023-07-27T20:13:52.993Z,99149.97
2023-07-27T20:16:20.452Z,99119.03
2023-07-27T20:18:52.528Z,99116.47
2023-07-27T20:21:19.941Z,99137.00
2023-07-27T20:23:49.760Z,99122.84
2023-07-27T20:26:16.956Z,99112.28
2023-07-27T20:28:47.771Z,99140.66
2023-07-27T20:31:15.600Z,99131.84
2023-07-27T20:33:44.522Z,99129.91
2023-07-27T20:36:13.072Z,99125.28
2023-07-27T20:38:42.534Z,99129.94
2023-07-27T20:41:13.014Z,99122.22
2023-07-27T20:43:40.632Z,99097.41
2023-07-27T20:46:08.013Z,99100.59
2023-07-27T20:48:37.420Z,99103.66
2023-07-27T20:51:06.121Z,99106.06
2023-07-27T20:53:38.049Z,99083.94
2023-07-27T20:56:12.552Z,99088.09
2023-07-27T20:58:43.241Z,99070.75
2023-07-27T21:01:11.579Z,99071.38
2023-07-27T21:03:40.907Z,99067.41
2023-07-27T21:06:11.539Z,99080.19
2023-07-27T21:08:42.793Z,99094.28
2023-07-27T21:11:13.484Z,99072.34
2023-07-27T21:13:40.788Z,99063.50
2023-07-27T21:16:12.555Z,99065.13
2023-07-27T21:18:44.882Z,99054.22
2023-07-27T21:21:17.975Z,99080.66
2023-07-27T21:23:49.242Z,99050.19
2023-07-27T21:26:20.556Z,99073.59
2023-07-27T21:28:48.770Z,99080.19
2023-07-27T21:31:19.091Z,99053.25
2023-07-27T21:33:46.369Z,99049.88
2023-07-27T21:36:15.722Z,99071.50
2023-07-27T21:38:45.382Z,99062.69
2023-07-27T21:41:16.458Z,99061.41
2023-07-27T21:43:46.413Z,99040.03
2023-07-27T21:46:16.566Z,99061.84
2023-07-27T21:48:44.720Z,99053.84
2023-07-27T21:51:14.559Z,99046.59
2023-07-27T21:53:42.839Z,99052.06
2023-07-27T21:56:11.135Z,99066.28
2023-07-27T21:58:41.743Z,99070.63
2023-07-27T22:01:15.042Z,99059.06
2023-07-27T22:03:42.501Z,99058.25
2023-07-27T22:06:15.411Z,99083.03
2023-07-27T22:08:42.643Z,99070.34
2023-07-27T22:11:13.029Z,99068.69
2023-07-27T22:13:40.681Z,99065.97
2023-07-27T22:16:10.774Z,99070.63
2023-07-27T22:18:38.353Z,99081.84
2023-07-27T22:21:12.081Z,99071.13
2023-07-27T22:23:41.347Z,99079.69
2023-07-27T22:26:09.370Z,99074.31
2023-07-27T22:28:37.501Z,99069.03
2023-07-27T22:31:10.499Z,99033.56
2023-07-27T22:33:38.583Z,99057.66
2023-07-27T22:36:09.383Z,99066.06
2023-07-27T22:38:39.842Z,99047.66
2023-07-27T22:41:08.231Z,99067.81
2023-07-27T22:43:35.385Z,99063.28
2023-07-27T22:46:03.994Z,99070.03
2023-07-27T22:48:33.852Z,99054.13
2023-07-27T22:51:02.323Z,99064.03
2023-07-27T22:53:29.601Z,99052.63
2023-07-27T22:56:01.734Z,99059.00
2023-07-27T22:58:28.994Z,99051.53
2023-07-27T23:00:57.248Z,99054.88
2023-07-27T23:03:25.419Z,99062.75
2023-07-27T23:05:53.399Z,99053.13
2023-07-27T23:08:20.908Z,99033.88
2023-07-27T23:10:55.804Z,99039.44
2023-07-27T23:13:23.158Z,99036.44
2023-07-27T23:15:56.784Z,99035.69
2023-07-27T23:18:24.096Z,99021.13
2023-07-27T23:20:58.056Z,99022.56
2023-07-27T23:23:30.461Z,99028.25
2023-07-27T23:25:57.774Z,99037.78
2023-07-27T23:28:27.587Z,99023.59
2023-07-27T23:31:01.183Z,99050.28
2023-07-27T23:33:28.734Z,99032.53
2023-07-27T23:35:57.734Z,99036.69
2023-07-27T23:38:25.244Z,98996.41
2023-07-27T23:40:53.526Z,99039.91
2023-07-27T23:43:23.448Z,99009.59
2023-07-27T23:45:50.804Z,99030.91
2023-07-27T23:48:19.730Z,98983.31
2023-07-27T23:50:47.062Z,98984.53
2023-07-27T23:53:14.867Z,98970.03
2023-07-27T23:55:42.377Z,99030.78
2023-07-27T23:58:09.628Z,99006.66
